Time;durP1;ratioP1;P1;durP2;ratioP2;P2;SDS_P1;SDS_P2;PMS_P1;PMS_P2;Temp;Humidity;BMP_temperature;BMP_pressure;BME280_temperature;BME280_humidity;BME280_pressure;Samples;Min_cycle;Max_cycle;Signal;HPM_P1;HPM_P2
2022/10/27 00:02:32;;;;;;;5.43;2.87;;;16.40;45.60;;;;;;10367044;28;20219;-68
2022/10/27 00:07:36;;;;;;;4.67;3.03;;;16.30;45.10;;;;;;10363853;28;20229;-69
2022/10/27 00:12:39;;;;;;;4.57;3.30;;;16.30;45.10;;;;;;10363137;28;20245;-69
2022/10/27 00:17:44;;;;;;;4.73;2.90;;;16.20;44.90;;;;;;10363732;28;20237;-69
2022/10/27 00:22:47;;;;;;;4.67;3.20;;;16.20;45.10;;;;;;10363909;28;20661;-69
2022/10/27 00:27:51;;;;;;;3.60;2.97;;;16.10;45.00;;;;;;10364086;28;20249;-69
2022/10/27 00:32:55;;;;;;;3.50;2.80;;;16.10;45.20;;;;;;10368213;28;20233;-69
2022/10/27 00:37:58;;;;;;;3.17;2.73;;;16.00;45.30;;;;;;10364831;28;20249;-69
2022/10/27 00:43:01;;;;;;;5.43;3.60;;;16.00;45.20;;;;;;10365656;28;20653;-69
2022/10/27 00:48:06;;;;;;;3.80;3.20;;;15.90;45.10;;;;;;10363794;28;20238;-69
2022/10/27 00:53:10;;;;;;;4.43;2.97;;;15.80;45.00;;;;;;10371458;28;20233;-69
2022/10/27 00:58:18;;;;;;;7.07;3.90;;;15.80;45.00;;;;;;10370827;28;20385;-68
2022/10/27 01:03:23;;;;;;;10.10;3.47;;;15.70;45.00;;;;;;10371367;28;20322;-69
2022/10/27 01:08:27;;;;;;;4.90;3.20;;;15.70;45.00;;;;;;10376799;28;20244;-70
2022/10/27 01:13:30;;;;;;;3.17;2.87;;;15.60;44.90;;;;;;10375291;28;20272;-73
2022/10/27 01:18:48;;;;;;;4.10;3.73;;;15.50;44.80;;;;;;10374138;28;20292;-69
2022/10/27 01:24:10;;;;;;;4.20;3.80;;;15.50;44.80;;;;;;10372367;28;20253;-70
2022/10/27 01:29:41;;;;;;;4.00;3.30;;;15.40;44.70;;;;;;10374370;28;20230;-69
2022/10/27 01:34:49;;;;;;;3.70;3.00;;;15.40;44.70;;;;;;10370769;28;20698;-70
2022/10/27 01:39:59;;;;;;;4.07;3.03;;;15.40;44.70;;;;;;10374596;28;20321;-70
2022/10/27 01:45:04;;;;;;;4.03;3.63;;;15.30;44.60;;;;;;10369198;28;20729;-70
2022/10/27 01:50:09;;;;;;;3.57;3.10;;;15.30;44.60;;;;;;10370845;28;20258;-70
2022/10/27 01:55:20;;;;;;;3.30;3.10;;;15.30;44.60;;;;;;10373119;28;20242;-70
2022/10/27 02:00:24;;;;;;;4.00;3.17;;;15.20;44.50;;;;;;10376030;28;20291;-70
2022/10/27 02:05:36;;;;;;;3.40;3.10;;;15.20;44.50;;;;;;10371003;28;20719;-70
2022/10/27 02:10:46;;;;;;;6.27;3.40;;;15.20;44.50;;;;;;10371395;28;20240;-69
2022/10/27 02:15:54;;;;;;;4.07;3.30;;;15.10;44.40;;;;;;10374163;28;20234;-70
2022/10/27 02:21:05;;;;;;;3.80;3.30;;;15.10;44.40;;;;;;10377490;28;20230;-70
2022/10/27 02:26:15;;;;;;;6.27;3.50;;;15.10;44.40;;;;;;10369531;28;20265;-70
2022/10/27 02:31:21;;;;;;;4.67;3.40;;;14.90;44.30;;;;;;10368235;28;20238;-70
2022/10/27 02:36:26;;;;;;;2.90;2.70;;;14.80;44.20;;;;;;10375022;28;20241;-70
2022/10/27 02:41:29;;;;;;;2.83;2.60;;;14.60;44.40;;;;;;10374133;28;20230;-70
2022/10/27 02:46:32;;;;;;;2.80;2.57;;;14.50;44.70;;;;;;10373055;28;20249;-70
2022/10/27 02:51:37;;;;;;;4.10;2.70;;;14.50;45.60;;;;;;10370599;28;20237;-70
2022/10/27 02:56:40;;;;;;;6.00;2.83;;;14.40;44.70;;;;;;10372285;28;20237;-70
2022/10/27 03:01:43;;;;;;;6.00;3.30;;;14.40;44.90;;;;;;10366547;28;20296;-70
2022/10/27 03:06:48;;;;;;;4.30;2.90;;;14.40;44.70;;;;;;10372943;28;20233;-69
2022/10/27 03:11:51;;;;;;;3.53;2.90;;;14.40;45.00;;;;;;10370100;28;20288;-70
2022/10/27 03:16:54;;;;;;;2.83;2.63;;;14.40;45.00;;;;;;10369983;28;20238;-70
2022/10/27 03:21:59;;;;;;;2.97;2.70;;;14.30;45.10;;;;;;10369760;28;20229;-70
2022/10/27 03:27:02;;;;;;;2.80;2.60;;;14.30;45.10;;;;;;10374041;28;20300;-70
2022/10/27 03:32:05;;;;;;;3.77;2.30;;;14.30;45.00;;;;;;10367794;28;20242;-69
2022/10/27 03:37:09;;;;;;;3.60;2.50;;;14.30;44.90;;;;;;10376130;28;20237;-68
2022/10/27 03:42:13;;;;;;;3.47;2.40;;;14.30;45.00;;;;;;10385941;28;20287;-68
2022/10/27 03:47:16;;;;;;;4.90;2.50;;;14.30;44.80;;;;;;10385354;28;20246;-68
2022/10/27 03:52:21;;;;;;;2.60;2.40;;;14.30;44.70;;;;;;10388387;28;20233;-68
2022/10/27 03:57:24;;;;;;;3.53;2.90;;;14.30;44.80;;;;;;10390939;28;20287;-68
2022/10/27 04:02:27;;;;;;;3.43;2.70;;;14.20;44.70;;;;;;10374537;28;20256;-70
2022/10/27 04:07:32;;;;;;;3.40;2.53;;;14.20;44.60;;;;;;10379636;28;20233;-68
2022/10/27 04:12:35;;;;;;;2.50;2.30;;;14.20;44.60;;;;;;10388993;28;20769;-72
2022/10/27 04:17:38;;;;;;;3.20;2.70;;;14.20;44.70;;;;;;10367951;28;20230;-72
2022/10/27 04:22:43;;;;;;;3.13;2.10;;;14.20;44.70;;;;;;10366643;28;20226;-72
2022/10/27 04:27:46;;;;;;;2.50;2.20;;;14.10;44.70;;;;;;10369762;28;20234;-70
2022/10/27 04:32:52;;;;;;;2.60;2.40;;;14.10;44.70;;;;;;10377372;28;20275;-69
2022/10/27 04:37:57;;;;;;;2.67;2.20;;;14.00;44.70;;;;;;10373590;28;20728;-68
2022/10/27 04:43:00;;;;;;;2.70;2.50;;;14.00;44.60;;;;;;10377463;28;20226;-69
2022/10/27 04:48:04;;;;;;;2.57;2.37;;;14.00;44.50;;;;;;10370144;28;21513;-69
2022/10/27 04:53:09;;;;;;;3.43;2.53;;;13.90;44.40;;;;;;10381490;28;20241;-68
2022/10/27 04:58:12;;;;;;;4.40;2.67;;;13.80;44.60;;;;;;10373492;28;20592;-69
2022/10/27 05:03:15;;;;;;;3.50;3.13;;;13.80;44.50;;;;;;10382661;28;20233;-69
2022/10/27 05:08:20;;;;;;;4.67;3.80;;;13.70;44.50;;;;;;10382045;28;20765;-71
2022/10/27 05:13:23;;;;;;;5.13;4.20;;;13.70;44.60;;;;;;10384782;28;20234;-69
2022/10/27 05:18:27;;;;;;;4.17;3.80;;;13.60;44.50;;;;;;10382333;28;20288;-72
2022/10/27 05:23:31;;;;;;;4.67;4.00;;;13.60;44.70;;;;;;10376682;28;20233;-72
2022/10/27 05:28:36;;;;;;;4.50;3.97;;;13.60;45.70;;;;;;10374555;28;20234;-71
2022/10/27 05:33:39;;;;;;;6.83;4.23;;;13.60;45.30;;;;;;10377958;28;20228;-72
2022/10/27 05:38:45;;;;;;;4.37;3.97;;;13.60;45.00;;;;;;10378538;28;20234;-71
2022/10/27 05:43:48;;;;;;;5.17;4.03;;;13.60;44.70;;;;;;10383076;28;20230;-66
2022/10/27 05:48:51;;;;;;;4.30;3.70;;;13.60;44.70;;;;;;10383724;28;20237;-66
2022/10/27 05:53:56;;;;;;;6.00;4.30;;;13.60;44.70;;;;;;10382320;28;20233;-66
2022/10/27 05:58:59;;;;;;;4.40;4.00;;;13.60;44.60;;;;;;10376069;28;20233;-67
2022/10/27 06:04:03;;;;;;;4.80;4.20;;;13.50;44.40;;;;;;10375920;28;20241;-67
2022/10/27 06:09:08;;;;;;;3.10;2.60;;;13.50;44.20;;;;;;10379242;28;20237;-67
2022/10/27 06:14:11;;;;;;;3.10;2.80;;;13.50;44.20;;;;;;10377032;28;20728;-66
2022/10/27 06:19:14;;;;;;;3.80;2.50;;;13.50;44.30;;;;;;10383482;28;20287;-69
2022/10/27 06:24:19;;;;;;;4.30;2.40;;;13.40;44.30;;;;;;10381826;28;20236;-66
2022/10/27 06:29:23;;;;;;;3.40;2.60;;;13.30;44.30;;;;;;10380663;28;20226;-66
2022/10/27 06:34:26;;;;;;;3.50;3.23;;;13.30;44.50;;;;;;10382113;28;20785;-67
2022/10/27 06:39:30;;;;;;;5.00;4.57;;;13.30;44.50;;;;;;10383367;28;20248;-67
2022/10/27 06:44:34;;;;;;;6.43;5.83;;;13.30;44.60;;;;;;10381226;28;20284;-67
2022/10/27 06:49:37;;;;;;;5.57;4.80;;;13.30;44.60;;;;;;10379194;28;20905;-67
2022/10/27 06:54:42;;;;;;;5.43;4.93;;;13.30;44.80;;;;;;10379784;28;20234;-66
2022/10/27 06:59:45;;;;;;;10.83;7.43;;;13.30;45.10;;;;;;10381062;28;20607;-66
2022/10/27 07:04:48;;;;;;;9.07;6.60;;;13.30;45.30;;;;;;10381453;28;20724;-67
2022/10/27 07:09:53;;;;;;;8.03;6.23;;;13.30;45.50;;;;;;10370745;28;20230;-68
2022/10/27 07:14:57;;;;;;;5.13;4.60;;;13.40;45.80;;;;;;10371134;28;20653;-69
2022/10/27 07:20:00;;;;;;;4.17;3.77;;;13.40;45.70;;;;;;10368306;28;20230;-69
2022/10/27 07:25:05;;;;;;;5.43;3.90;;;13.50;45.70;;;;;;10374449;28;20225;-69
2022/10/27 07:30:09;;;;;;;4.90;3.47;;;13.50;46.00;;;;;;10380893;28;20234;-69
2022/10/27 07:35:12;;;;;;;4.53;3.43;;;13.60;46.10;;;;;;10377622;28;20234;-69
2022/10/27 07:40:19;;;;;;;3.93;3.43;;;13.60;46.20;;;;;;10372045;28;20238;-69
2022/10/27 07:45:24;;;;;;;4.07;3.70;;;13.50;46.80;;;;;;10376110;28;20245;-69
2022/10/27 07:50:29;;;;;;;4.73;3.93;;;13.80;47.10;;;;;;10371631;28;20229;-69
2022/10/27 07:55:35;;;;;;;6.07;3.93;;;13.90;47.40;;;;;;10376447;28;20229;-69
2022/10/27 08:00:41;;;;;;;4.87;3.53;;;14.10;48.00;;;;;;10368285;28;20779;-69
2022/10/27 08:05:44;;;;;;;4.00;3.57;;;14.30;48.20;;;;;;10370482;28;20230;-69
2022/10/27 08:10:50;;;;;;;5.00;4.00;;;14.40;48.10;;;;;;10384672;28;20241;-70
2022/10/27 08:15:58;;;;;;;3.77;3.37;;;14.70;48.90;;;;;;10387859;28;20720;-69
2022/10/27 08:21:04;;;;;;;3.53;3.23;;;14.80;49.10;;;;;;10389135;28;20806;-69
2022/10/27 08:26:08;;;;;;;3.03;2.70;;;15.10;49.30;;;;;;10388194;28;20222;-69
2022/10/27 08:31:12;;;;;;;4.00;2.90;;;15.30;49.50;;;;;;10382820;28;20236;-69
2022/10/27 08:36:15;;;;;;;3.20;2.70;;;15.50;49.10;;;;;;10383938;28;20226;-69
2022/10/27 08:41:26;;;;;;;4.50;2.70;;;15.80;49.20;;;;;;10386590;28;21305;-69
2022/10/27 08:46:39;;;;;;;3.20;2.90;;;16.00;49.70;;;;;;10386118;28;20241;-69
2022/10/27 08:51:45;;;;;;;3.13;2.83;;;16.20;49.50;;;;;;10377963;28;20641;-69
2022/10/27 08:56:50;;;;;;;3.93;2.67;;;16.40;49.20;;;;;;10379990;28;20268;-69
2022/10/27 09:02:02;;;;;;;2.70;2.50;;;16.60;49.40;;;;;;10378754;28;20593;-68
2022/10/27 09:07:18;;;;;;;3.30;3.00;;;16.90;49.50;;;;;;10369916;28;20237;-69
2022/10/27 09:12:56;;;;;;;3.60;3.30;;;17.10;49.70;;;;;;10376338;28;20248;-69
2022/10/27 09:18:04;;;;;;;4.43;3.33;;;17.30;49.80;;;;;;10357349;28;20233;-69
2022/10/27 09:23:13;;;;;;;4.20;3.80;;;17.60;49.50;;;;;;10379776;28;20237;-69
2022/10/27 09:28:27;;;;;;;5.13;3.50;;;17.90;49.00;;;;;;10375929;28;20238;-67
2022/10/27 09:33:34;;;;;;;3.60;3.30;;;18.10;49.00;;;;;;10381843;28;20238;-67
2022/10/27 09:38:37;;;;;;;4.00;3.57;;;18.30;48.80;;;;;;10378378;28;20230;-67
2022/10/27 09:43:41;;;;;;;4.37;3.13;;;18.40;48.70;;;;;;10384965;28;20226;-67
2022/10/27 09:48:44;;;;;;;4.47;3.37;;;18.60;48.50;;;;;;10382245;28;20233;-67
2022/10/27 09:53:49;;;;;;;5.27;3.50;;;18.80;48.60;;;;;;10383587;28;20231;-67
2022/10/27 09:59:01;;;;;;;3.03;2.73;;;19.00;48.50;;;;;;10384116;28;20621;-67
2022/10/27 10:04:15;;;;;;;4.20;3.10;;;19.20;48.00;;;;;;10381714;28;20233;-67
2022/10/27 10:09:25;;;;;;;4.27;3.87;;;19.50;48.30;;;;;;10379877;28;20916;-73
2022/10/27 10:14:30;;;;;;;5.40;3.87;;;19.70;48.50;;;;;;10381868;28;20225;-72
2022/10/27 10:19:33;;;;;;;6.77;3.60;;;19.90;48.70;;;;;;10376668;28;20659;-72
2022/10/27 10:24:36;;;;;;;3.87;3.47;;;20.10;48.60;;;;;;10379223;28;20230;-72
2022/10/27 10:29:49;;;;;;;5.23;4.27;;;20.30;48.40;;;;;;10377448;28;20297;-70
2022/10/27 10:34:53;;;;;;;6.57;4.17;;;20.50;47.50;;;;;;10380986;28;20248;-70
2022/10/27 10:40:08;;;;;;;3.90;3.50;;;20.80;48.00;;;;;;10378039;28;20233;-71
2022/10/27 10:45:18;;;;;;;4.00;3.60;;;20.90;47.60;;;;;;10375907;28;20260;-70
2022/10/27 10:50:23;;;;;;;3.50;3.20;;;21.10;46.70;;;;;;10373341;28;20824;-71
2022/10/27 10:55:29;;;;;;;3.83;3.47;;;21.20;46.90;;;;;;10380272;28;20245;-73
2022/10/27 11:00:35;;;;;;;3.80;3.50;;;21.30;46.50;;;;;;10379016;28;20598;-72
2022/10/27 11:05:38;;;;;;;3.93;3.57;;;21.40;46.10;;;;;;10361114;28;20238;-72
2022/10/27 11:10:43;;;;;;;5.63;4.00;;;21.50;46.70;;;;;;10370816;28;20742;-72
2022/10/27 11:15:52;;;;;;;3.87;3.57;;;21.60;46.50;;;;;;10369152;28;20296;-72
2022/10/27 11:20:59;;;;;;;4.93;2.67;;;21.70;46.10;;;;;;10377131;28;20257;-72
2022/10/27 11:26:03;;;;;;;2.53;2.30;;;21.80;44.60;;;;;;10377520;28;20244;-71
2022/10/27 11:31:17;;;;;;;3.03;1.80;;;21.90;44.20;;;;;;10382301;28;20245;-69
2022/10/27 11:36:27;;;;;;;2.73;2.20;;;21.90;42.80;;;;;;10383320;28;20719;-67
2022/10/27 11:41:35;;;;;;;6.23;1.80;;;22.10;43.40;;;;;;10378188;28;20260;-67
2022/10/27 11:46:44;;;;;;;3.53;2.10;;;22.10;43.50;;;;;;10380096;28;20265;-66
2022/10/27 11:51:53;;;;;;;3.73;2.10;;;22.20;42.60;;;;;;10376943;28;20230;-70
2022/10/27 11:57:09;;;;;;;2.87;1.97;;;22.30;42.90;;;;;;10380835;28;21216;-70
2022/10/27 12:02:46;;;;;;;2.97;2.00;;;22.40;42.00;;;;;;10378589;28;20304;-70
2022/10/27 12:07:58;;;;;;;5.70;2.67;;;22.50;42.50;;;;;;10377687;28;20230;-70
2022/10/27 12:13:05;;;;;;;4.37;2.43;;;22.50;41.40;;;;;;10384236;28;20287;-70
2022/10/27 12:18:18;;;;;;;4.23;2.10;;;22.50;41.90;;;;;;10375459;28;20738;-69
2022/10/27 12:23:26;;;;;;;4.03;2.40;;;22.60;41.20;;;;;;10377382;28;20638;-69
2022/10/27 12:28:30;;;;;;;3.03;2.00;;;22.60;41.60;;;;;;10376481;28;20233;-69
2022/10/27 12:33:40;;;;;;;3.73;2.23;;;22.70;42.70;;;;;;10375188;28;20245;-69
2022/10/27 12:38:51;;;;;;;2.97;2.17;;;22.70;41.10;;;;;;10376957;28;20234;-70
2022/10/27 12:44:00;;;;;;;5.07;2.10;;;22.80;41.40;;;;;;10378201;28;20233;-69
2022/10/27 12:49:16;;;;;;;3.77;1.90;;;22.90;42.20;;;;;;10372297;28;20299;-69
2022/10/27 12:54:41;;;;;;;4.07;2.30;;;22.90;41.10;;;;;;10371755;28;20711;-69
2022/10/27 12:59:52;;;;;;;3.10;2.13;;;23.00;41.00;;;;;;10378194;28;20230;-69
2022/10/27 13:05:28;;;;;;;3.23;2.20;;;23.00;40.60;;;;;;10380486;28;20931;-69
2022/10/27 13:11:01;;;;;;;4.87;1.90;;;23.10;40.90;;;;;;10374931;28;21032;-69
2022/10/27 13:16:14;;;;;;;3.50;2.10;;;23.10;41.20;;;;;;10374088;28;20230;-69
2022/10/27 13:21:25;;;;;;;2.50;2.00;;;23.10;40.50;;;;;;10378247;28;20229;-69
2022/10/27 13:26:34;;;;;;;3.43;2.00;;;23.30;39.90;;;;;;10381995;28;20245;-69
2022/10/27 13:31:38;;;;;;;2.40;1.70;;;23.30;39.70;;;;;;10377215;28;20242;-69
2022/10/27 13:36:42;;;;;;;3.90;2.27;;;23.40;41.00;;;;;;10380973;28;20237;-69
2022/10/27 13:42:05;;;;;;;2.80;2.00;;;23.40;40.60;;;;;;10381912;28;20234;-69
2022/10/27 13:47:14;;;;;;;4.73;1.90;;;23.40;39.50;;;;;;10388207;28;20710;-69
2022/10/27 13:52:20;;;;;;;3.63;1.67;;;23.40;39.50;;;;;;10378739;28;20283;-69
2022/10/27 13:58:11;;;;;;;3.00;1.70;;;23.50;39.60;;;;;;10384037;28;20237;-69
2022/10/27 14:03:34;;;;;;;2.07;1.80;;;23.50;39.60;;;;;;10379799;28;20307;-69
2022/10/27 14:08:48;;;;;;;3.63;1.97;;;23.50;39.20;;;;;;10387320;28;20272;-69
2022/10/27 14:13:55;;;;;;;2.90;1.70;;;23.50;38.70;;;;;;10381004;28;20238;-69
2022/10/27 14:19:02;;;;;;;3.63;2.20;;;23.50;38.80;;;;;;10381427;28;20234;-69
2022/10/27 14:24:13;;;;;;;2.27;2.07;;;23.40;39.50;;;;;;10376863;28;20313;-69
2022/10/27 14:29:23;;;;;;;4.57;2.00;;;23.50;39.20;;;;;;10376518;28;20230;-69
2022/10/27 14:34:26;;;;;;;3.47;2.20;;;23.50;39.60;;;;;;10379815;28;20238;-69
2022/10/27 14:39:33;;;;;;;5.03;2.60;;;23.50;39.60;;;;;;10379271;28;20589;-69
2022/10/27 14:44:38;;;;;;;6.00;2.10;;;23.50;39.60;;;;;;10376427;28;20260;-69
2022/10/27 14:49:47;;;;;;;3.47;1.73;;;23.40;39.50;;;;;;10375584;28;20687;-69
2022/10/27 14:54:54;;;;;;;4.90;2.00;;;23.40;39.50;;;;;;10377238;28;20880;-69
2022/10/27 14:59:59;;;;;;;4.40;2.10;;;23.40;39.50;;;;;;10376190;28;20226;-69
2022/10/27 15:05:13;;;;;;;5.13;2.10;;;23.40;39.50;;;;;;10380906;28;20841;-75
2022/10/27 15:10:18;;;;;;;3.90;2.20;;;23.30;39.40;;;;;;10376751;28;20237;-69
2022/10/27 15:15:31;;;;;;;3.53;2.00;;;23.30;39.50;;;;;;10377179;28;20240;-69
2022/10/27 15:20:35;;;;;;;6.50;2.37;;;23.30;39.40;;;;;;10379719;28;20243;-69
2022/10/27 15:25:39;;;;;;;3.20;2.40;;;23.20;39.30;;;;;;10374587;28;20238;-69
2022/10/27 15:30:44;;;;;;;4.77;2.50;;;23.20;39.50;;;;;;10370473;28;20240;-69
2022/10/27 15:35:47;;;;;;;3.03;2.27;;;23.10;39.20;;;;;;10373470;28;20881;-69
2022/10/27 15:40:51;;;;;;;3.37;2.10;;;23.10;39.60;;;;;;10377627;28;20233;-69
2022/10/27 15:46:08;;;;;;;5.83;2.20;;;23.00;39.70;;;;;;10375300;28;20244;-70
2022/10/27 15:51:14;;;;;;;9.23;3.13;;;22.90;39.30;;;;;;10379224;28;20229;-71
2022/10/27 15:56:40;;;;;;;10.37;4.30;;;22.80;39.50;;;;;;10372314;28;20238;-70
2022/10/27 16:01:46;;;;;;;8.53;3.50;;;22.70;39.70;;;;;;10371928;28;20221;-70
2022/10/27 16:06:49;;;;;;;9.20;3.20;;;22.60;39.60;;;;;;10374404;28;20273;-70
2022/10/27 16:11:52;;;;;;;6.17;3.43;;;22.50;39.80;;;;;;10373525;28;20288;-70
2022/10/27 16:16:57;;;;;;;5.17;2.80;;;22.40;39.80;;;;;;10373446;28;20760;-70
2022/10/27 16:22:03;;;;;;;4.73;2.70;;;22.30;39.50;;;;;;10373518;28;20696;-70
2022/10/27 16:27:09;;;;;;;6.90;2.60;;;22.20;39.60;;;;;;10374956;28;20230;-70
2022/10/27 16:32:14;;;;;;;2.40;2.10;;;22.10;39.70;;;;;;10381287;28;20607;-70
2022/10/27 16:37:21;;;;;;;5.73;2.43;;;21.90;39.40;;;;;;10390466;28;20676;-70
2022/10/27 16:42:26;;;;;;;6.60;2.97;;;21.70;39.40;;;;;;10386473;28;20238;-70
2022/10/27 16:47:30;;;;;;;6.63;4.10;;;21.60;39.50;;;;;;10385491;28;20256;-70
2022/10/27 16:52:34;;;;;;;8.13;6.00;;;21.40;39.60;;;;;;10394093;28;20371;-70
2022/10/27 16:57:38;;;;;;;10.40;6.23;;;21.30;39.70;;;;;;10389621;28;20243;-71
2022/10/27 17:02:42;;;;;;;7.07;6.27;;;21.20;39.90;;;;;;10387413;28;20225;-70
2022/10/27 17:07:47;;;;;;;6.80;5.67;;;21.10;39.80;;;;;;10388025;28;20230;-71
2022/10/27 17:12:50;;;;;;;6.50;4.73;;;21.00;39.70;;;;;;10391458;28;20233;-70
2022/10/27 17:17:55;;;;;;;7.90;6.10;;;20.90;39.80;;;;;;10390695;28;20337;-70
2022/10/27 17:23:01;;;;;;;10.37;6.50;;;20.80;39.60;;;;;;10378844;28;20225;-70
2022/10/27 17:28:07;;;;;;;9.17;6.50;;;20.60;39.40;;;;;;10384087;28;20698;-70
2022/10/27 17:33:11;;;;;;;6.83;5.40;;;20.50;39.70;;;;;;10380993;28;20261;-70
2022/10/27 17:38:15;;;;;;;8.53;7.00;;;20.30;39.90;;;;;;10384581;28;20646;-71
2022/10/27 17:43:18;;;;;;;9.43;5.90;;;20.20;39.90;;;;;;10387942;28;20276;-70
2022/10/27 17:48:22;;;;;;;7.33;5.27;;;20.10;40.00;;;;;;10381131;28;20659;-70
2022/10/27 17:53:25;;;;;;;6.57;5.20;;;19.90;40.10;;;;;;10388186;28;20241;-70
2022/10/27 17:58:31;;;;;;;6.03;5.43;;;19.80;40.10;;;;;;10387025;28;20245;-70
2022/10/27 18:03:40;;;;;;;7.07;5.30;;;19.70;40.10;;;;;;10383543;28;20321;-70
2022/10/27 18:08:43;;;;;;;7.43;5.23;;;19.60;40.30;;;;;;10379817;28;20237;-70
2022/10/27 18:13:48;;;;;;;7.43;6.43;;;19.50;40.30;;;;;;10381227;28;20727;-70
2022/10/27 18:18:54;;;;;;;8.37;6.90;;;19.40;40.30;;;;;;10384094;28;20227;-71
2022/10/27 18:23:59;;;;;;;7.93;7.23;;;19.30;40.40;;;;;;10383529;28;21089;-71
2022/10/27 18:29:03;;;;;;;9.90;8.90;;;19.30;40.50;;;;;;10383962;28;20237;-70
2022/10/27 18:34:10;;;;;;;10.73;9.60;;;19.20;40.50;;;;;;10380886;28;20284;-71
2022/10/27 18:39:15;;;;;;;8.77;7.87;;;19.10;40.60;;;;;;10381789;28;20237;-70
2022/10/27 18:44:19;;;;;;;7.63;6.93;;;19.00;40.40;;;;;;10382835;28;20226;-70
2022/10/27 18:49:24;;;;;;;9.00;8.03;;;18.90;40.60;;;;;;10368636;28;20241;-70
2022/10/27 18:54:47;;;;;;;10.00;8.43;;;18.80;40.40;;;;;;10373570;28;20276;-69
2022/10/27 18:59:50;;;;;;;9.47;7.80;;;18.80;40.60;;;;;;10366917;28;20232;-69
2022/10/27 19:04:55;;;;;;;9.10;7.67;;;18.70;41.00;;;;;;10369699;28;20229;-70
2022/10/27 19:09:58;;;;;;;7.83;6.80;;;18.70;41.00;;;;;;10367206;28;20241;-70
2022/10/27 19:15:01;;;;;;;8.70;7.17;;;18.60;40.80;;;;;;10371750;28;20234;-70
2022/10/27 19:20:07;;;;;;;7.50;6.30;;;18.60;40.70;;;;;;10369247;28;20709;-70
2022/10/27 19:25:10;;;;;;;6.90;5.90;;;18.40;40.60;;;;;;10373141;28;20747;-70
2022/10/27 19:30:14;;;;;;;8.57;5.50;;;18.30;40.60;;;;;;10372519;28;20221;-70
2022/10/27 19:35:19;;;;;;;5.43;4.83;;;18.20;40.80;;;;;;10371767;28;21312;-70
2022/10/27 19:40:22;;;;;;;6.27;5.10;;;18.10;41.00;;;;;;10375074;28;20828;-70
2022/10/27 19:45:26;;;;;;;4.80;3.80;;;18.10;40.90;;;;;;10371604;28;20237;-70
2022/10/27 19:50:31;;;;;;;5.27;3.73;;;18.00;40.90;;;;;;10372156;28;20259;-70
2022/10/27 19:55:34;;;;;;;4.37;3.20;;;17.80;40.80;;;;;;10367942;28;20237;-70
2022/10/27 20:00:37;;;;;;;6.00;4.80;;;17.70;40.90;;;;;;10372882;28;20225;-70
2022/10/27 20:05:51;;;;;;;6.07;4.50;;;17.60;41.00;;;;;;10370602;28;20234;-70
2022/10/27 20:10:54;;;;;;;4.90;4.17;;;17.60;41.40;;;;;;10367201;28;20225;-70
2022/10/27 20:16:02;;;;;;;7.47;4.80;;;17.50;41.20;;;;;;10368280;28;20230;-70
2022/10/27 20:21:07;;;;;;;7.43;5.17;;;17.50;41.50;;;;;;10369889;28;20919;-69
2022/10/27 20:26:11;;;;;;;7.40;4.87;;;17.50;41.40;;;;;;10369301;28;20293;-70
2022/10/27 20:31:32;;;;;;;6.97;4.73;;;17.40;41.20;;;;;;10368896;28;20237;-69
2022/10/27 20:36:37;;;;;;;5.97;5.37;;;17.40;41.30;;;;;;10367485;28;20241;-70
2022/10/27 20:41:41;;;;;;;6.90;5.77;;;17.40;41.40;;;;;;10368650;28;20284;-70
2022/10/27 20:46:45;;;;;;;10.73;6.37;;;17.30;41.40;;;;;;10369510;28;20913;-70
2022/10/27 20:51:49;;;;;;;6.90;5.70;;;17.20;41.20;;;;;;10368411;28;20894;-70
2022/10/27 20:56:53;;;;;;;7.40;5.60;;;17.20;41.20;;;;;;10362958;28;20234;-70
2022/10/27 21:01:56;;;;;;;9.70;5.10;;;17.10;42.10;;;;;;10372321;28;20229;-69
2022/10/27 21:07:01;;;;;;;5.33;4.83;;;17.00;42.00;;;;;;10370935;28;20273;-70
2022/10/27 21:12:05;;;;;;;7.90;4.33;;;17.00;42.30;;;;;;10365440;28;20446;-70
2022/10/27 21:17:08;;;;;;;7.87;5.73;;;16.90;42.40;;;;;;10367843;28;20688;-70
2022/10/27 21:22:13;;;;;;;8.30;5.80;;;16.80;42.30;;;;;;10371509;28;20687;-70
2022/10/27 21:27:16;;;;;;;7.90;5.53;;;16.70;42.40;;;;;;10368522;28;20230;-69
2022/10/27 21:32:20;;;;;;;7.77;5.50;;;16.60;41.90;;;;;;10368105;28;20257;-70
2022/10/27 21:37:25;;;;;;;7.80;5.70;;;16.60;42.20;;;;;;10366909;28;20230;-70
2022/10/27 21:42:28;;;;;;;9.10;5.53;;;16.50;42.70;;;;;;10366288;28;20225;-69
2022/10/27 21:47:32;;;;;;;8.60;5.00;;;16.40;42.40;;;;;;10362477;28;20304;-69
2022/10/27 21:52:37;;;;;;;6.67;5.60;;;16.30;42.70;;;;;;10363255;28;20280;-70
2022/10/27 21:57:41;;;;;;;7.13;5.30;;;16.30;42.70;;;;;;10364326;28;20230;-70
2022/10/27 22:02:45;;;;;;;5.80;5.20;;;16.30;42.20;;;;;;10370030;28;20225;-70
2022/10/27 22:07:49;;;;;;;5.57;4.90;;;16.20;42.20;;;;;;10368933;28;20804;-68
2022/10/27 22:12:53;;;;;;;5.73;5.13;;;16.20;42.50;;;;;;10369501;28;20320;-68
2022/10/27 22:17:57;;;;;;;6.70;4.73;;;16.20;42.30;;;;;;10370615;28;20246;-68
2022/10/27 22:23:01;;;;;;;5.60;4.93;;;16.20;42.10;;;;;;10373946;28;20234;-68
2022/10/27 22:28:04;;;;;;;9.40;5.47;;;16.10;42.30;;;;;;10373290;28;20232;-70
2022/10/27 22:33:08;;;;;;;5.73;4.87;;;16.00;42.20;;;;;;10367596;28;20226;-70
2022/10/27 22:38:12;;;;;;;6.10;4.47;;;15.90;42.30;;;;;;10367367;28;20237;-70
2022/10/27 22:43:15;;;;;;;6.00;4.80;;;15.80;42.40;;;;;;10368121;28;20237;-69
2022/10/27 22:48:18;;;;;;;6.30;4.43;;;15.90;42.40;;;;;;10363838;28;20230;-70
2022/10/27 22:53:23;;;;;;;5.63;4.70;;;15.80;42.40;;;;;;10374486;28;20260;-70
2022/10/27 22:58:26;;;;;;;7.47;4.37;;;15.80;42.70;;;;;;10368056;28;21314;-70
2022/10/27 23:03:29;;;;;;;4.83;4.30;;;15.80;42.50;;;;;;10368974;28;20240;-69
2022/10/27 23:08:34;;;;;;;10.23;4.93;;;15.80;42.60;;;;;;10361336;28;20993;-70
2022/10/27 23:13:38;;;;;;;9.60;4.20;;;15.80;42.70;;;;;;10368445;28;20237;-70
2022/10/27 23:18:41;;;;;;;7.00;4.37;;;15.70;42.60;;;;;;10370137;28;20230;-70
2022/10/27 23:23:46;;;;;;;4.70;3.53;;;15.60;42.60;;;;;;10365715;28;20269;-70
2022/10/27 23:28:49;;;;;;;4.53;3.13;;;15.60;42.70;;;;;;10367845;28;20253;-70
2022/10/27 23:33:54;;;;;;;3.83;3.43;;;15.50;42.50;;;;;;10366075;28;20654;-70
2022/10/27 23:38:59;;;;;;;4.80;3.70;;;15.50;42.70;;;;;;10367186;28;20237;-70
2022/10/27 23:44:02;;;;;;;4.70;3.53;;;15.40;42.90;;;;;;10369435;28;20229;-70
2022/10/27 23:49:05;;;;;;;7.20;3.87;;;15.40;42.70;;;;;;10371566;28;20248;-70
2022/10/27 23:54:10;;;;;;;4.17;3.40;;;15.40;42.80;;;;;;10365998;28;20280;-70
2022/10/27 23:59:13;;;;;;;3.50;3.20;;;15.40;43.00;;;;;;10364654;28;20282;-70
